createdAt,value
2018-07-30T00:00:37.139Z,1011.73
2018-07-30T00:01:37.119Z,1011.75
2018-07-30T00:02:37.100Z,1011.74
2018-07-30T00:03:37.080Z,1011.76
2018-07-30T00:04:37.061Z,1011.78
2018-07-30T00:05:37.036Z,1011.76
2018-07-30T00:06:37.017Z,1011.77
2018-07-30T00:07:36.998Z,1011.77
2018-07-30T00:08:37.172Z,1011.76
2018-07-30T00:09:36.952Z,1011.75
2018-07-30T00:10:36.931Z,1011.69
2018-07-30T00:11:36.911Z,1011.72
2018-07-30T00:12:36.892Z,1011.74
2018-07-30T00:13:36.871Z,1011.71
2018-07-30T00:14:36.848Z,1011.73
2018-07-30T00:15:36.824Z,1011.72
2018-07-30T00:16:36.802Z,1011.69
2018-07-30T00:17:36.784Z,1011.72
2018-07-30T00:18:36.764Z,1011.71
2018-07-30T00:19:36.741Z,1011.68
2018-07-30T00:20:36.931Z,1011.69
2018-07-30T00:21:36.697Z,1011.65
2018-07-30T00:22:36.713Z,1011.65
2018-07-30T00:23:36.860Z,1011.64
2018-07-30T00:24:36.640Z,1011.62
2018-07-30T00:25:36.616Z,1011.66
2018-07-30T00:26:36.794Z,1011.62
2018-07-30T00:27:36.775Z,1011.58
2018-07-30T00:28:36.551Z,1011.59
2018-07-30T00:29:36.581Z,1011.60
2018-07-30T00:30:36.713Z,1011.59
2018-07-30T00:31:36.693Z,1011.58
2018-07-30T00:32:36.669Z,1011.58
2018-07-30T00:33:36.452Z,1011.58
2018-07-30T00:34:36.427Z,1011.61
2018-07-30T00:35:36.405Z,1011.61
2018-07-30T00:36:36.388Z,1011.62
2018-07-30T00:37:36.363Z,1011.63
2018-07-30T00:38:36.340Z,1011.61
2018-07-30T00:39:36.536Z,1011.64
2018-07-30T00:40:36.500Z,1011.64
2018-07-30T00:41:39.101Z,1011.59
2018-07-30T00:42:36.258Z,1011.59
2018-07-30T00:43:36.439Z,1011.52
2018-07-30T00:44:36.215Z,1011.58
2018-07-30T00:45:36.396Z,1011.55
2018-07-30T00:46:36.171Z,1011.56
2018-07-30T00:47:36.148Z,1011.49
2018-07-30T00:48:36.126Z,1011.54
2018-07-30T00:49:36.309Z,1011.48
2018-07-30T00:50:36.089Z,1011.56
2018-07-30T00:51:36.065Z,1011.51
2018-07-30T00:52:36.047Z,1011.54
2018-07-30T00:53:39.454Z,1011.54
2018-07-30T00:54:36.203Z,1011.53
2018-07-30T00:55:35.980Z,1011.51
2018-07-30T00:56:35.959Z,1011.54
2018-07-30T00:57:35.939Z,1011.55
2018-07-30T00:58:35.923Z,1011.50
2018-07-30T00:59:35.896Z,1011.52
2018-07-30T01:00:35.877Z,1011.54
2018-07-30T01:01:35.854Z,1011.52
2018-07-30T01:02:35.831Z,1011.54
2018-07-30T01:03:35.809Z,1011.57
2018-07-30T01:04:35.788Z,1011.58
2018-07-30T01:05:35.971Z,1011.52
2018-07-30T01:06:35.750Z,1011.55
2018-07-30T01:07:35.965Z,1011.57
2018-07-30T01:08:35.701Z,1011.57
2018-07-30T01:09:35.684Z,1011.61
2018-07-30T01:10:35.661Z,1011.58
2018-07-30T01:11:35.645Z,1011.62
2018-07-30T01:12:35.619Z,1011.61
2018-07-30T01:13:35.600Z,1011.65
2018-07-30T01:14:35.575Z,1011.59
2018-07-30T01:15:35.555Z,1011.59
2018-07-30T01:16:35.531Z,1011.63
2018-07-30T01:17:35.511Z,1011.63
2018-07-30T01:18:35.693Z,1011.65
2018-07-30T01:19:35.471Z,1011.63
2018-07-30T01:20:35.449Z,1011.69
2018-07-30T01:21:35.686Z,1011.66
2018-07-30T01:22:35.406Z,1011.63
2018-07-30T01:23:35.384Z,1011.65
2018-07-30T01:24:35.565Z,1011.65
2018-07-30T01:25:35.342Z,1011.64
2018-07-30T01:26:35.318Z,1011.65
2018-07-30T01:27:35.300Z,1011.68
2018-07-30T01:28:35.276Z,1011.62
2018-07-30T01:29:35.255Z,1011.63
2018-07-30T01:30:35.242Z,1011.65
2018-07-30T01:31:35.424Z,1011.63
2018-07-30T01:32:35.192Z,1011.66
2018-07-30T01:33:35.171Z,1011.63
2018-07-30T01:34:35.148Z,1011.64
2018-07-30T01:35:37.951Z,1011.68
2018-07-30T01:36:35.105Z,1011.67
2018-07-30T01:37:35.285Z,1011.64
2018-07-30T01:38:35.068Z,1011.63
2018-07-30T01:39:35.042Z,1011.70
2018-07-30T01:40:35.018Z,1011.67
2018-07-30T01:41:34.999Z,1011.70
2018-07-30T01:42:35.181Z,1011.72
2018-07-30T01:43:35.160Z,1011.73
2018-07-30T01:44:35.142Z,1011.71
2018-07-30T01:45:34.913Z,1011.71
2018-07-30T01:46:34.891Z,1011.74
2018-07-30T01:47:35.073Z,1011.71
2018-07-30T01:48:34.846Z,1011.74
2018-07-30T01:49:34.826Z,1011.72
2018-07-30T01:50:35.012Z,1011.72
2018-07-30T01:51:34.793Z,1011.73
2018-07-30T01:52:34.764Z,1011.74
2018-07-30T01:53:34.749Z,1011.77
2018-07-30T01:54:34.720Z,1011.73
2018-07-30T01:55:34.996Z,1011.74
2018-07-30T01:56:34.676Z,1011.75
2018-07-30T01:57:34.655Z,1011.68
2018-07-30T01:58:34.634Z,1011.72
2018-07-30T01:59:34.613Z,1011.74
2018-07-30T02:00:34.595Z,1011.68
2018-07-30T02:01:34.568Z,1011.68
2018-07-30T02:02:34.552Z,1011.66
2018-07-30T02:03:34.535Z,1011.69
2018-07-30T02:04:34.505Z,1011.68
2018-07-30T02:05:34.488Z,1011.71
2018-07-30T02:06:34.461Z,1011.70
2018-07-30T02:07:34.439Z,1011.70
2018-07-30T02:08:34.619Z,1011.73
2018-07-30T02:09:34.397Z,1011.74
2018-07-30T02:10:34.577Z,1011.74
2018-07-30T02:11:34.354Z,1011.74
2018-07-30T02:12:34.336Z,1011.70
2018-07-30T02:13:34.309Z,1011.72
2018-07-30T02:14:34.291Z,1011.71
2018-07-30T02:15:34.270Z,1011.71
2018-07-30T02:16:34.247Z,1011.72
2018-07-30T02:17:34.226Z,1011.77
2018-07-30T02:18:34.202Z,1011.78
2018-07-30T02:19:34.384Z,1011.77
2018-07-30T02:20:34.361Z,1011.74
2018-07-30T02:21:34.226Z,1011.75
2018-07-30T02:22:34.119Z,1011.73
2018-07-30T02:23:34.099Z,1011.74
2018-07-30T02:24:34.075Z,1011.74
2018-07-30T02:25:34.057Z,1011.73
2018-07-30T02:26:34.032Z,1011.78
2018-07-30T02:27:34.012Z,1011.75
2018-07-30T02:28:33.988Z,1011.69
2018-07-30T02:29:33.969Z,1011.75
2018-07-30T02:30:33.944Z,1011.70
2018-07-30T02:31:33.921Z,1011.73
2018-07-30T02:32:33.899Z,1011.71
2018-07-30T02:33:33.879Z,1011.75
2018-07-30T02:34:34.061Z,1011.68
2018-07-30T02:35:33.839Z,1011.72
2018-07-30T02:36:33.816Z,1011.75
2018-07-30T02:37:33.798Z,1011.76
2018-07-30T02:38:33.771Z,1011.70
2018-07-30T02:39:33.749Z,1011.72
2018-07-30T02:40:33.726Z,1011.76
2018-07-30T02:41:33.706Z,1011.75
2018-07-30T02:42:33.887Z,1011.75
2018-07-30T02:43:33.664Z,1011.76
2018-07-30T02:44:33.644Z,1011.75
2018-07-30T02:45:33.628Z,1011.76
2018-07-30T02:46:33.601Z,1011.75
2018-07-30T02:47:33.578Z,1011.79
2018-07-30T02:48:33.556Z,1011.77
2018-07-30T02:49:33.539Z,1011.76
2018-07-30T02:50:33.512Z,1011.80
2018-07-30T02:51:33.492Z,1011.80
2018-07-30T02:52:33.469Z,1011.80
2018-07-30T02:53:33.447Z,1011.82
2018-07-30T02:54:33.431Z,1011.85
2018-07-30T02:55:33.414Z,1011.81
2018-07-30T02:56:33.390Z,1011.87
2018-07-30T02:57:33.581Z,1011.85
2018-07-30T02:58:33.340Z,1011.81
2018-07-30T02:59:33.318Z,1011.88
2018-07-30T03:00:33.296Z,1011.85
2018-07-30T03:01:33.275Z,1011.82
2018-07-30T03:02:33.254Z,1011.87
2018-07-30T03:03:33.235Z,1011.88
2018-07-30T03:04:33.212Z,1011.85
2018-07-30T03:05:33.191Z,1011.89
2018-07-30T03:06:33.167Z,1011.91
2018-07-30T03:07:33.148Z,1011.91
2018-07-30T03:08:33.324Z,1011.89
2018-07-30T03:09:33.102Z,1011.88
2018-07-30T03:10:33.083Z,1011.90
2018-07-30T03:11:33.264Z,1011.91
2018-07-30T03:12:33.039Z,1011.89
2018-07-30T03:13:33.018Z,1011.87
2018-07-30T03:14:32.997Z,1011.92
2018-07-30T03:15:32.976Z,1011.92
2018-07-30T03:16:32.954Z,1011.88
2018-07-30T03:17:32.937Z,1011.87
2018-07-30T03:18:32.907Z,1011.88
2018-07-30T03:19:32.887Z,1011.88
2018-07-30T03:20:32.865Z,1011.93
2018-07-30T03:21:32.846Z,1011.87
2018-07-30T03:22:33.029Z,1011.85
2018-07-30T03:23:32.803Z,1011.89
2018-07-30T03:24:32.779Z,1011.87
2018-07-30T03:25:32.765Z,1011.88
2018-07-30T03:26:32.735Z,1011.84
2018-07-30T03:27:32.719Z,1011.89
2018-07-30T03:28:32.695Z,1011.88
2018-07-30T03:29:32.669Z,1011.87
2018-07-30T03:30:32.652Z,1011.89
2018-07-30T03:31:32.626Z,1011.91
2018-07-30T03:32:32.621Z,1011.89
2018-07-30T03:33:32.585Z,1011.93
2018-07-30T03:34:32.565Z,1011.90
2018-07-30T03:35:32.544Z,1011.89
2018-07-30T03:36:32.520Z,1011.89
2018-07-30T03:37:32.499Z,1011.91
2018-07-30T03:38:32.478Z,1011.89
2018-07-30T03:39:32.453Z,1011.89
2018-07-30T03:40:32.431Z,1011.84
2018-07-30T03:41:32.411Z,1011.89
2018-07-30T03:42:32.391Z,1011.86
2018-07-30T03:43:32.370Z,1011.82
2018-07-30T03:44:32.347Z,1011.83
2018-07-30T03:45:32.331Z,1011.84
2018-07-30T03:46:32.304Z,1011.88
2018-07-30T03:47:32.282Z,1011.88
2018-07-30T03:48:32.260Z,1011.84
2018-07-30T03:49:32.240Z,1011.85
2018-07-30T03:50:32.215Z,1011.82
2018-07-30T03:51:32.197Z,1011.85
2018-07-30T03:52:32.186Z,1011.86
2018-07-30T03:53:32.154Z,1011.86
2018-07-30T03:54:32.134Z,1011.85
2018-07-30T03:55:32.112Z,1011.83
2018-07-30T03:56:32.088Z,1011.87
2018-07-30T03:57:32.067Z,1011.85
2018-07-30T03:58:32.046Z,1011.84
2018-07-30T03:59:32.026Z,1011.85
2018-07-30T04:00:32.001Z,1011.87
2018-07-30T04:01:31.987Z,1011.88
2018-07-30T04:02:31.958Z,1011.90
2018-07-30T04:03:31.936Z,1011.83
2018-07-30T04:04:31.916Z,1011.82
2018-07-30T04:05:31.893Z,1011.88
2018-07-30T04:06:31.910Z,1011.89
2018-07-30T04:07:31.854Z,1011.87
2018-07-30T04:08:31.831Z,1011.90
2018-07-30T04:09:31.809Z,1011.97
2018-07-30T04:10:31.787Z,1011.95
2018-07-30T04:11:31.766Z,1011.94
2018-07-30T04:12:31.743Z,1011.96
2018-07-30T04:13:31.723Z,1011.96
2018-07-30T04:14:31.704Z,1011.99
2018-07-30T04:15:31.683Z,1011.99
2018-07-30T04:16:31.666Z,1012.03
2018-07-30T04:17:31.638Z,1012.05
2018-07-30T04:18:31.622Z,1012.03
2018-07-30T04:19:31.597Z,1011.98
2018-07-30T04:20:31.575Z,1012.09
2018-07-30T04:21:31.555Z,1012.22
2018-07-30T04:22:31.537Z,1012.30
2018-07-30T04:23:31.511Z,1012.30
2018-07-30T04:24:34.312Z,1012.34
2018-07-30T04:25:31.671Z,1012.34
2018-07-30T04:26:31.449Z,1012.35
2018-07-30T04:27:31.433Z,1012.35
2018-07-30T04:28:31.405Z,1012.37
2018-07-30T04:29:31.387Z,1012.26
2018-07-30T04:30:31.363Z,1012.21
2018-07-30T04:31:31.343Z,1012.24
2018-07-30T04:32:31.326Z,1012.24
2018-07-30T04:33:31.304Z,1012.23
2018-07-30T04:34:31.282Z,1012.24
2018-07-30T04:35:31.260Z,1012.22
2018-07-30T04:36:31.238Z,1012.23
2018-07-30T04:37:31.218Z,1012.32
2018-07-30T04:38:31.201Z,1012.14
2018-07-30T04:39:31.180Z,1012.10
2018-07-30T04:40:31.159Z,1012.11
2018-07-30T04:41:31.138Z,1012.12
2018-07-30T04:42:31.117Z,1012.13
2018-07-30T04:43:31.097Z,1012.18
2018-07-30T04:44:31.076Z,1012.18
2018-07-30T04:45:31.056Z,1012.18
2018-07-30T04:46:31.035Z,1012.21
2018-07-30T04:47:31.016Z,1012.20
2018-07-30T04:48:31.003Z,1012.22
2018-07-30T04:49:30.996Z,1012.24
2018-07-30T04:50:30.954Z,1012.25
2018-07-30T04:51:30.934Z,1012.25
2018-07-30T04:52:30.912Z,1012.28
2018-07-30T04:53:30.897Z,1012.31
2018-07-30T04:54:31.075Z,1012.36
2018-07-30T04:55:30.854Z,1012.31
2018-07-30T04:56:30.829Z,1012.35
2018-07-30T04:57:30.808Z,1012.36
2018-07-30T04:58:30.792Z,1012.36
2018-07-30T04:59:30.771Z,1012.37
2018-07-30T05:00:30.749Z,1012.50
2018-07-30T05:01:30.935Z,1012.58
2018-07-30T05:02:30.716Z,1012.56
2018-07-30T05:03:30.704Z,1012.54
2018-07-30T05:04:30.668Z,1012.55
2018-07-30T05:05:30.649Z,1012.53
2018-07-30T05:06:30.645Z,1012.55
2018-07-30T05:08:12.965Z,1012.55
2018-07-30T05:09:12.743Z,1012.54
2018-07-30T05:10:12.723Z,1012.57
2018-07-30T05:11:12.713Z,1012.59
2018-07-30T05:12:12.715Z,1012.58
2018-07-30T05:13:12.665Z,1012.58
2018-07-30T05:14:12.651Z,1012.56
2018-07-30T05:15:12.830Z,1012.57
2018-07-30T05:16:12.604Z,1012.57
2018-07-30T05:17:12.584Z,1012.63
2018-07-30T05:18:12.767Z,1012.64
2018-07-30T05:19:12.595Z,1012.61
2018-07-30T05:20:12.527Z,1012.56
2018-07-30T05:21:12.506Z,1012.58
2018-07-30T05:22:12.488Z,1012.61
2018-07-30T05:23:12.468Z,1012.59
2018-07-30T05:24:12.455Z,1012.60
2018-07-30T05:25:12.430Z,1012.61
2018-07-30T05:26:12.411Z,1012.60
2018-07-30T05:27:12.387Z,1012.64
2018-07-30T05:28:12.366Z,1012.60
2018-07-30T05:29:12.347Z,1012.59
2018-07-30T05:30:12.330Z,1012.55
2018-07-30T05:31:12.309Z,1012.55
2018-07-30T05:32:12.291Z,1012.60
2018-07-30T05:33:12.272Z,1012.59
2018-07-30T05:34:12.279Z,1012.56
2018-07-30T05:35:12.229Z,1012.61
2018-07-30T05:36:12.210Z,1012.72
2018-07-30T05:37:12.197Z,1012.65
2018-07-30T05:38:12.170Z,1012.70
2018-07-30T05:39:12.168Z,1013.08
2018-07-30T05:40:12.134Z,1013.42
2018-07-30T05:41:12.112Z,1013.37
2018-07-30T05:42:54.461Z,1013.06
2018-07-30T05:43:54.229Z,1013.03
2018-07-30T05:44:54.208Z,1013.14
2018-07-30T05:45:54.192Z,1013.04
2018-07-30T05:46:54.173Z,1012.81
2018-07-30T05:47:54.156Z,1012.83
2018-07-30T05:48:54.137Z,1012.76
2018-07-30T05:49:54.128Z,1012.75
2018-07-30T05:50:54.101Z,1012.78
2018-07-30T05:51:54.076Z,1012.85
2018-07-30T05:52:54.058Z,1012.80
2018-07-30T05:53:54.042Z,1012.80
2018-07-30T05:54:54.026Z,1012.79
2018-07-30T05:55:54.002Z,1012.87
2018-07-30T05:56:53.989Z,1012.89
2018-07-30T05:57:53.966Z,1012.87
2018-07-30T05:58:53.948Z,1012.91
2018-07-30T05:59:54.049Z,1012.92
2018-07-30T06:00:53.909Z,1012.96
2018-07-30T06:01:54.189Z,1013.01
2018-07-30T06:02:53.871Z,1013.04
2018-07-30T06:03:53.858Z,1013.02
2018-07-30T06:04:53.840Z,1013.05
2018-07-30T06:05:53.815Z,1013.00
2018-07-30T06:06:53.798Z,1013.02
2018-07-30T06:07:53.786Z,1013.06
2018-07-30T06:08:53.759Z,1013.11
2018-07-30T06:09:53.739Z,1013.11
2018-07-30T06:10:53.921Z,1013.09
2018-07-30T06:11:53.704Z,1013.09
2018-07-30T06:12:53.683Z,1013.10
2018-07-30T06:13:53.663Z,1013.10
2018-07-30T06:14:53.644Z,1013.08
2018-07-30T06:15:53.625Z,1013.08
2018-07-30T06:16:53.606Z,1013.12
2018-07-30T06:17:53.590Z,1013.14
2018-07-30T06:18:53.570Z,1013.17
2018-07-30T06:19:53.550Z,1013.18
2018-07-30T06:20:53.585Z,1013.21
2018-07-30T06:21:53.513Z,1013.23
2018-07-30T06:22:53.496Z,1013.26
2018-07-30T06:23:53.480Z,1013.32
2018-07-30T06:24:53.457Z,1013.75
2018-07-30T06:25:53.440Z,1013.73
2018-07-30T06:26:53.627Z,1014.23
2018-07-30T06:27:53.401Z,1013.79
2018-07-30T06:28:53.384Z,1013.50
2018-07-30T06:29:53.369Z,1013.51
2018-07-30T06:30:53.550Z,1013.49
2018-07-30T06:31:53.678Z,1013.65
2018-07-30T06:32:53.313Z,1014.03
2018-07-30T06:33:53.297Z,1014.71
2018-07-30T06:34:53.280Z,1014.47
2018-07-30T06:35:53.255Z,1014.72
2018-07-30T06:36:53.240Z,1014.80
2018-07-30T06:37:53.220Z,1014.64
2018-07-30T06:38:53.204Z,1014.83
2018-07-30T06:39:53.188Z,1014.78
2018-07-30T06:40:53.374Z,1014.90
2018-07-30T06:41:53.156Z,1014.73
2018-07-30T06:42:53.133Z,1013.81
2018-07-30T06:43:53.120Z,1013.68
2018-07-30T06:44:53.102Z,1013.67
2018-07-30T06:45:53.086Z,1013.71
2018-07-30T06:46:53.068Z,1013.77
2018-07-30T06:47:53.272Z,1013.95
2018-07-30T06:48:53.035Z,1015.12
2018-07-30T06:49:53.020Z,1013.98
2018-07-30T06:50:53.000Z,1013.64
2018-07-30T06:51:52.983Z,1013.59
2018-07-30T06:52:52.967Z,1013.61
2018-07-30T06:53:52.953Z,1014.29
2018-07-30T06:54:52.935Z,1015.44
2018-07-30T06:55:52.922Z,1015.42
2018-07-30T06:56:52.903Z,1015.45
2018-07-30T06:57:52.890Z,1015.55
2018-07-30T06:58:53.072Z,1015.57
2018-07-30T06:59:52.852Z,1015.62
2018-07-30T07:00:53.038Z,1015.67
2018-07-30T07:01:53.026Z,1015.72
2018-07-30T07:02:53.009Z,1015.62
2018-07-30T07:03:52.990Z,1015.75
2018-07-30T07:04:52.978Z,1015.54
2018-07-30T07:05:52.964Z,1015.51
2018-07-30T07:06:55.571Z,1015.52
2018-07-30T07:07:55.556Z,1014.99
2018-07-30T07:09:35.078Z,1015.80
2018-07-30T07:10:38.493Z,1015.73
2018-07-30T07:11:34.846Z,1014.87
2018-07-30T07:12:35.337Z,1014.40
2018-07-30T07:13:34.819Z,1014.47
2018-07-30T07:14:37.642Z,1014.21
2018-07-30T07:15:34.801Z,1014.34
2018-07-30T07:16:35.030Z,1014.54
2018-07-30T07:17:34.762Z,1014.49
2018-07-30T07:18:37.572Z,1014.75
2018-07-30T07:19:34.935Z,1014.72
2018-07-30T07:20:34.966Z,1014.82
2018-07-30T07:21:34.726Z,1015.77
2018-07-30T07:22:34.690Z,1015.81
2018-07-30T07:23:34.677Z,1015.80
2018-07-30T07:24:34.865Z,1015.81
2018-07-30T07:25:34.658Z,1015.91
2018-07-30T07:26:34.638Z,1015.66
2018-07-30T07:27:34.621Z,1015.11
2018-07-30T07:28:34.606Z,1015.27
2018-07-30T07:29:34.592Z,1014.84
2018-07-30T07:30:34.577Z,1015.56
2018-07-30T07:31:34.565Z,1015.38
2018-07-30T07:32:34.554Z,1015.40
2018-07-30T07:33:34.540Z,1015.12
2018-07-30T07:34:34.527Z,1015.51
2018-07-30T07:35:34.514Z,1015.63
2018-07-30T07:36:34.700Z,1015.55
2018-07-30T07:37:34.483Z,1015.34
2018-07-30T07:38:34.680Z,1015.30
2018-07-30T07:39:34.464Z,1015.86
2018-07-30T07:40:34.647Z,1015.67
2018-07-30T07:41:34.637Z,1015.93
2018-07-30T07:42:37.647Z,1015.93
2018-07-30T07:43:34.609Z,1015.72
2018-07-30T07:44:34.597Z,1014.91
2018-07-30T07:45:34.385Z,1015.18
2018-07-30T07:46:34.371Z,1014.91
2018-07-30T07:47:34.356Z,1014.56
2018-07-30T07:48:34.396Z,1016.05
2018-07-30T07:49:34.335Z,1014.62
2018-07-30T07:50:34.348Z,1015.62
2018-07-30T07:51:34.317Z,1014.30
2018-07-30T07:52:34.495Z,1014.29
2018-07-30T07:53:34.286Z,1014.30
2018-07-30T07:54:34.268Z,1014.33
2018-07-30T07:55:34.254Z,1014.62
2018-07-30T07:56:34.242Z,1014.28
2018-07-30T07:57:34.227Z,1014.31
2018-07-30T07:58:34.215Z,1015.76
2018-07-30T07:59:34.207Z,1015.88
2018-07-30T08:00:34.185Z,1015.96
2018-07-30T08:01:34.172Z,1015.30
2018-07-30T08:02:34.171Z,1015.71
2018-07-30T08:03:34.145Z,1015.35
2018-07-30T08:04:34.134Z,1015.56
2018-07-30T08:05:34.120Z,1015.73
2018-07-30T08:06:34.308Z,1016.04
2018-07-30T08:07:34.297Z,1015.80
2018-07-30T08:08:34.284Z,1015.83
2018-07-30T08:09:34.271Z,1015.25
2018-07-30T08:14:05.057Z,1014.61
2018-07-30T08:15:04.844Z,1014.61
2018-07-30T08:16:04.829Z,1015.10
2018-07-30T08:17:04.820Z,1015.35
2018-07-30T08:18:04.815Z,1014.90
2018-07-30T08:19:04.793Z,1014.87
2018-07-30T08:20:04.801Z,1015.04
2018-07-30T08:21:04.766Z,1014.67
2018-07-30T08:22:04.753Z,1014.67
2018-07-30T08:23:04.740Z,1014.64
2018-07-30T08:24:04.729Z,1014.81
2018-07-30T08:25:04.718Z,1015.24
2018-07-30T08:26:04.702Z,1015.04
2018-07-30T08:27:04.690Z,1014.94
2018-07-30T08:28:04.677Z,1015.35
2018-07-30T08:29:04.678Z,1014.80
2018-07-30T08:30:04.652Z,1015.27
2018-07-30T08:31:04.638Z,1015.99
2018-07-30T08:32:04.625Z,1015.96
2018-07-30T08:33:04.699Z,1015.93
2018-07-30T08:34:04.598Z,1015.96
2018-07-30T08:35:46.948Z,1015.98
2018-07-30T08:36:46.935Z,1015.96
2018-07-30T08:37:46.922Z,1015.80
2018-07-30T08:38:50.749Z,1015.53
2018-07-30T08:39:46.901Z,1015.17
2018-07-30T08:41:29.050Z,1014.95
2018-07-30T08:42:29.037Z,1015.54
2018-07-30T08:43:29.027Z,1015.18
2018-07-30T08:45:11.439Z,1015.03
2018-07-30T08:46:53.590Z,1015.00
2018-07-30T08:47:53.584Z,1014.91
2018-07-30T08:48:53.427Z,1014.91
2018-07-30T08:49:53.559Z,1014.87
2018-07-30T08:50:53.542Z,1014.88
2018-07-30T08:52:35.692Z,1014.89
2018-07-30T08:53:39.156Z,1014.97
2018-07-30T08:54:35.667Z,1014.95
2018-07-30T08:55:35.655Z,1014.87
2018-07-30T08:56:35.642Z,1014.89
2018-07-30T08:57:35.629Z,1014.89
2018-07-30T08:58:35.618Z,1014.83
2018-07-30T08:59:35.602Z,1014.85
2018-07-30T09:00:35.589Z,1015.18
2018-07-30T09:01:35.376Z,1014.97
2018-07-30T09:02:35.361Z,1014.98
2018-07-30T09:03:35.350Z,1014.96
2018-07-30T09:04:35.539Z,1014.95
2018-07-30T09:05:35.526Z,1014.92
2018-07-30T09:06:35.312Z,1014.88
2018-07-30T09:07:35.503Z,1014.96
2018-07-30T09:08:35.491Z,1014.93
2018-07-30T09:09:35.275Z,1014.90
2018-07-30T09:10:35.264Z,1014.94
2018-07-30T09:11:35.257Z,1014.93
2018-07-30T09:12:35.573Z,1015.01
2018-07-30T09:13:35.219Z,1015.03
2018-07-30T09:14:35.207Z,1015.03
2018-07-30T09:15:35.196Z,1014.98
2018-07-30T09:16:35.485Z,1015.05
2018-07-30T09:17:35.180Z,1015.10
2018-07-30T09:18:35.157Z,1015.17
2018-07-30T09:19:35.144Z,1015.14
2018-07-30T09:20:35.131Z,1015.09
2018-07-30T09:21:35.117Z,1015.22
2018-07-30T09:22:35.105Z,1015.20
2018-07-30T09:23:35.092Z,1015.34
2018-07-30T09:25:18.454Z,1015.70
2018-07-30T09:26:17.432Z,1015.34
2018-07-30T09:27:59.579Z,1015.42
2018-07-30T09:28:59.364Z,1015.38
2018-07-30T09:29:59.554Z,1015.62
2018-07-30T09:30:59.545Z,1015.21
2018-07-30T09:31:59.331Z,1015.24
2018-07-30T09:32:59.449Z,1015.16
2018-07-30T09:33:59.308Z,1015.13
2018-07-30T09:34:59.295Z,1015.09
2018-07-30T09:35:59.283Z,1015.05
2018-07-30T09:36:59.274Z,1015.08
2018-07-30T09:37:59.259Z,1015.04
2018-07-30T09:38:59.250Z,1015.05
2018-07-30T09:39:59.237Z,1015.07
2018-07-30T09:40:59.226Z,1015.06
2018-07-30T09:41:59.218Z,1015.12
2018-07-30T09:42:59.203Z,1015.11
2018-07-30T09:43:59.200Z,1015.16
2018-07-30T09:44:59.200Z,1015.04
2018-07-30T09:45:59.164Z,1015.08
2018-07-30T09:46:59.155Z,1015.02
2018-07-30T09:47:59.139Z,1015.09
2018-07-30T09:48:59.124Z,1015.12
2018-07-30T09:49:59.111Z,1015.11
2018-07-30T09:50:59.099Z,1015.23
2018-07-30T09:51:59.088Z,1015.21
2018-07-30T09:52:59.081Z,1015.24
2018-07-30T09:53:59.059Z,1015.19
2018-07-30T09:54:59.046Z,1015.22
2018-07-30T09:55:59.033Z,1015.25
2018-07-30T09:56:59.037Z,1015.18
2018-07-30T09:57:59.007Z,1015.21
2018-07-30T09:58:58.994Z,1015.15
2018-07-30T09:59:58.980Z,1015.10
2018-07-30T10:00:58.966Z,1015.12
2018-07-30T10:01:58.958Z,1015.14
2018-07-30T10:03:00.011Z,1015.11
2018-07-30T10:13:07.453Z,1015.17
2018-07-30T10:14:06.984Z,1015.22
2018-07-30T10:15:06.969Z,1015.26
2018-07-30T10:16:07.161Z,1015.29
2018-07-30T10:17:06.939Z,1015.28
2018-07-30T10:18:07.083Z,1015.33
2018-07-30T10:19:06.911Z,1015.39
2018-07-30T10:20:06.897Z,1015.43
2018-07-30T10:21:06.883Z,1015.39
2018-07-30T10:22:06.869Z,1015.38
2018-07-30T10:23:07.058Z,1015.38
2018-07-30T10:24:06.842Z,1015.38
2018-07-30T10:25:07.030Z,1015.42
2018-07-30T10:26:06.812Z,1015.43
2018-07-30T10:27:06.809Z,1015.44
2018-07-30T10:28:06.790Z,1015.42
2018-07-30T10:29:06.774Z,1015.39
2018-07-30T10:30:06.760Z,1015.41
2018-07-30T10:31:07.203Z,1015.43
2018-07-30T10:32:06.734Z,1015.45
2018-07-30T10:33:06.923Z,1015.48
2018-07-30T10:34:06.917Z,1015.46
2018-07-30T10:35:49.057Z,1015.37
2018-07-30T10:36:49.206Z,1015.32
2018-07-30T10:37:52.713Z,1015.25
2018-07-30T10:38:49.021Z,1015.28
2018-07-30T10:39:49.045Z,1015.15
2018-07-30T10:40:49.601Z,1015.07
2018-07-30T10:41:48.784Z,1015.05
2018-07-30T10:42:49.070Z,1015.01
2018-07-30T10:43:48.967Z,1015.01
2018-07-30T10:44:48.948Z,1015.11
2018-07-30T10:45:49.745Z,1015.09
2018-07-30T10:46:48.723Z,1015.37
2018-07-30T10:47:48.915Z,1015.26
2018-07-30T10:48:48.698Z,1015.29
2018-07-30T10:49:49.501Z,1015.25
2018-07-30T10:50:48.879Z,1015.29
2018-07-30T10:51:48.902Z,1015.43
2018-07-30T10:52:48.857Z,1015.34
2018-07-30T10:55:13.171Z,1015.17
2018-07-30T10:56:12.959Z,1015.36
2018-07-30T10:57:13.155Z,1015.51
2018-07-30T10:58:13.146Z,1015.39
2018-07-30T10:59:12.929Z,1015.35
2018-07-30T11:00:16.009Z,1015.19
2018-07-30T11:01:13.111Z,1015.37
2018-07-30T11:02:13.104Z,1015.28
2018-07-30T11:03:13.096Z,1015.27
2018-07-30T11:04:13.084Z,1015.45
2018-07-30T11:05:13.073Z,1015.48
2018-07-30T11:06:12.861Z,1015.22
2018-07-30T11:07:12.850Z,1015.14
2018-07-30T11:08:12.842Z,1015.07
2018-07-30T11:09:13.804Z,1015.40
2018-07-30T11:10:13.023Z,1015.19
2018-07-30T11:11:13.012Z,1015.29
2018-07-30T11:12:13.104Z,1015.27
2018-07-30T11:13:12.789Z,1015.54
2018-07-30T11:14:12.777Z,1015.77
2018-07-30T11:15:12.831Z,1015.47
2018-07-30T11:16:12.774Z,1016.06
2018-07-30T11:17:12.949Z,1015.63
2018-07-30T11:18:12.988Z,1016.22
2018-07-30T11:19:13.339Z,1016.26
2018-07-30T11:20:12.920Z,1016.32
2018-07-30T11:21:12.920Z,1016.34
2018-07-30T11:22:12.698Z,1016.04
2018-07-30T11:23:12.692Z,1016.25
2018-07-30T11:24:12.884Z,1016.44
2018-07-30T11:25:12.875Z,1016.41
2018-07-30T11:26:12.868Z,1016.61
2018-07-30T11:27:12.861Z,1015.76
2018-07-30T11:28:12.685Z,1015.49
2018-07-30T11:29:12.845Z,1016.13
2018-07-30T11:30:12.635Z,1015.46
2018-07-30T11:31:54.999Z,1015.31
2018-07-30T11:32:54.988Z,1015.39
2018-07-30T11:33:54.777Z,1015.73
2018-07-30T11:34:54.775Z,1015.48
2018-07-30T11:35:55.012Z,1015.47
2018-07-30T11:36:54.752Z,1015.39
2018-07-30T11:37:54.747Z,1015.50
2018-07-30T11:38:54.940Z,1015.58
2018-07-30T11:39:54.929Z,1015.49
2018-07-30T11:40:54.919Z,1015.45
2018-07-30T11:41:54.708Z,1015.61
2018-07-30T11:42:54.748Z,1015.58
2018-07-30T11:43:54.697Z,1016.10
2018-07-30T11:44:54.682Z,1015.82
2018-07-30T11:45:54.676Z,1016.06
2018-07-30T11:46:54.663Z,1016.17
2018-07-30T11:47:54.856Z,1015.99
2018-07-30T11:48:54.652Z,1016.13
2018-07-30T11:49:54.665Z,1016.52
2018-07-30T11:50:54.628Z,1015.96
2018-07-30T11:51:54.622Z,1016.53
2018-07-30T11:52:54.819Z,1016.42
2018-07-30T11:53:54.813Z,1015.79
2018-07-30T11:54:54.597Z,1015.43
2018-07-30T11:55:54.792Z,1015.15
2018-07-30T11:56:54.582Z,1015.10
2018-07-30T11:57:54.575Z,1015.02
2018-07-30T11:58:54.780Z,1015.00
2018-07-30T11:59:54.962Z,1014.97
2018-07-30T12:00:54.754Z,1014.95
2018-07-30T12:01:54.903Z,1014.90
2018-07-30T12:02:58.570Z,1014.89
2018-07-30T12:03:54.725Z,1014.86
2018-07-30T12:04:55.526Z,1014.84
2018-07-30T12:05:54.705Z,1014.82
2018-07-30T12:06:54.696Z,1014.89
2018-07-30T12:07:54.483Z,1014.85
2018-07-30T12:08:54.758Z,1014.87
2018-07-30T12:09:54.465Z,1014.99
2018-07-30T12:10:54.450Z,1015.01
2018-07-30T12:11:54.462Z,1015.03
2018-07-30T12:12:54.432Z,1015.22
2018-07-30T12:13:54.419Z,1015.56
2018-07-30T12:16:36.764Z,1015.99
2018-07-30T12:17:36.548Z,1016.09
2018-07-30T12:18:36.548Z,1015.83
2018-07-30T12:19:36.530Z,1015.54
2018-07-30T12:20:36.520Z,1015.85
2018-07-30T12:21:36.540Z,1015.93
2018-07-30T12:22:36.497Z,1015.42
2018-07-30T12:23:36.761Z,1015.59
2018-07-30T12:24:36.683Z,1015.77
2018-07-30T12:25:36.678Z,1016.00
2018-07-30T12:26:36.667Z,1015.62
2018-07-30T12:27:36.657Z,1015.85
2018-07-30T12:28:36.444Z,1015.46
2018-07-30T12:29:36.441Z,1015.68